Terminal Aerodrome Forecast
Issued by NWS Albany, NY

Home | Current Version | Previous Version | Text Only | Print | Product List | Glossary On
Versions: 1 2 3 4 5 6 7 8 9 10 11 12 13 14 15 16 17
000
FTUS41 KALY 290500
TAFPOU
TAF
KPOU 290520Z 2906/3006 00000KT P6SM SKC
     FM291300 VRB03KT P6SM FEW040 SCT250
     FM291800 34005KT P6SM SCT050
     FM300000 VRB03KT P6SM SKC=

USA.gov is the U.S. government's official web portal to all federal, state and local government web resources and services.